Linden, Pennsylvania
Current Conditions -  °F | °C
As of 2:54 AM on Tuesday 21 Oct 2014 (Local Time) from KIPT Reporting Station
Overcast Overcast  
Wind Chill: 49°   Ceiling: 8000
Heat Index: 49°   Visibility: 10mi
Dew Point: 43°   Wind: 0mph
Humidity: 80%   Direction: NA
Pressure: 29.84"   Gusts: NA
Location:  41.23°N, 77.13°W
Report Text: KIPT 210654Z AUTO 00000KT 10SM OVC080 09/06 A2984 RMK AO2 RAB38E53 SLP107 P0000 T00940061
Loading
Personal Weather Stations






























Interactive Weather Map
Tropical Storm Tracking
New forecast layout! Learn more

10-Day Weather Forecast

Advertisements
Track Severe Weather on mobile